Sao Martinho, Brazil
Current Conditions -  °F | °C
As of 10:00 PM on Sunday 25 Jan 2015 (Local Time) from SBLO Reporting Station
Thunderstorm Thunderstorm  
Wind Chill: 77°   Ceiling: Unl
Heat Index: 79°   Visibility: 6mi
Dew Point: 68°   Wind: 7mph
Humidity: 74%   Direction: 260°W
Pressure: 29.94"   Gusts: NA
Location:  23.19°S, 51.44°W
Report Text: SBLO 260000Z 26006KT 9999 -TSRA SCT030 FEW040CB 25/20 Q1014
Loading
Personal Weather Stations






























Interactive Weather Map New forecast layout! Learn more

10-Day Weather Forecast

Advertisements
Track Severe Weather on mobile